Cheat Lake, West Virginia
Current Conditions -  °F | °C
As of 2:53 AM on Monday 24 Nov 2014 (Local Time) from KMGW Reporting Station
Overcast Overcast  
Wind Chill: 63°   Ceiling: 5500
Heat Index: 63°   Visibility: 10mi
Dew Point: 47°   Wind: 8mph
Humidity: 56%   Direction: 180°S
Pressure: 29.46"   Gusts: 20mph
Location:  39.5891°N, 79.8946°W
Report Text: KMGW 240753Z AUTO 18007G17KT 10SM OVC055 17/08 A2946 RMK AO2 SLP969 T01720083 TSNO
Loading
Personal Weather Stations






























Interactive Weather Map New forecast layout! Learn more

10-Day Weather Forecast

Advertisements
Track Severe Weather on mobile